Time;durP1;ratioP1;P1;durP2;ratioP2;P2;SDS_P1;SDS_P2;PMS_P1;PMS_P2;Temp;Humidity;BMP_temperature;BMP_pressure;BME280_temperature;BME280_humidity;BME280_pressure;Samples;Min_cycle;Max_cycle;Signal;HPM_P1;HPM_P2
2024/01/23 00:02:04;;;;;;;23.60;4.53;;;;;;;4.73;95.44;101026.13;5038730;28;20422;-50
2024/01/23 00:04:32;;;;;;;23.38;5.13;;;;;;;4.72;95.73;101024.47;5046827;28;20045;-47
2024/01/23 00:07:00;;;;;;;15.25;4.95;;;;;;;4.72;95.82;101018.16;5047212;28;20049;-48
2024/01/23 00:09:27;;;;;;;26.52;6.70;;;;;;;4.71;96.05;101022.84;5028853;28;20052;-44
2024/01/23 00:11:55;;;;;;;23.40;6.65;;;;;;;4.71;95.88;101027.53;5046920;28;20058;-45
2024/01/23 00:14:22;;;;;;;20.92;6.40;;;;;;;4.72;96.17;101031.88;5044499;28;20052;-48
2024/01/23 00:16:49;;;;;;;30.63;5.28;;;;;;;4.73;95.88;101036.25;5046691;28;20056;-44
2024/01/23 00:19:17;;;;;;;21.55;4.97;;;;;;;4.73;96.00;101031.59;5047492;28;20052;-44
2024/01/23 00:21:44;;;;;;;17.70;4.32;;;;;;;4.74;96.20;101021.41;5046735;28;20057;-46
2024/01/23 00:24:12;;;;;;;32.38;5.78;;;;;;;4.76;96.16;101032.94;5045626;28;20045;-46
2024/01/23 00:26:39;;;;;;;27.60;5.15;;;;;;;4.78;96.19;101027.94;5047113;28;20048;-44
2024/01/23 00:29:07;;;;;;;26.02;5.55;;;;;;;4.78;96.05;101016.97;5033260;28;20049;-46
2024/01/23 00:31:36;;;;;;;17.40;4.07;;;;;;;4.80;96.12;101020.22;5046082;28;20060;-45
2024/01/23 00:34:04;;;;;;;32.70;8.18;;;;;;;4.82;96.09;101026.22;5046965;28;20053;-49
2024/01/23 00:36:31;;;;;;;27.73;5.82;;;;;;;4.81;95.93;101028.19;5046092;28;20044;-45
2024/01/23 00:38:59;;;;;;;42.92;7.90;;;;;;;4.81;96.04;101032.84;5046251;28;20079;-45
2024/01/23 00:41:26;;;;;;;21.85;4.25;;;;;;;4.80;95.95;101036.69;5046797;28;20060;-48
2024/01/23 00:43:53;;;;;;;28.85;5.35;;;;;;;4.82;95.76;101035.28;5046053;28;20052;-44
2024/01/23 00:46:21;;;;;;;16.83;4.00;;;;;;;4.83;96.00;101034.16;5045453;28;20045;-48
2024/01/23 00:48:48;;;;;;;22.95;4.25;;;;;;;4.87;95.93;101042.63;5033292;28;20403;-45
2024/01/23 00:51:16;;;;;;;24.70;5.93;;;;;;;4.88;95.92;101038.75;5046054;28;20045;-45
2024/01/23 00:53:43;;;;;;;23.15;5.53;;;;;;;4.91;96.25;101033.47;5046256;28;20388;-45
2024/01/23 00:56:10;;;;;;;27.17;7.88;;;;;;;4.95;96.12;101039.16;5046093;28;20041;-45
2024/01/23 00:58:38;;;;;;;23.25;4.75;;;;;;;4.97;95.92;101036.13;5028139;28;20526;-45
2024/01/23 01:01:05;;;;;;;22.75;4.80;;;;;;;4.98;95.96;101046.78;5045811;28;20044;-45
2024/01/23 01:03:33;;;;;;;23.27;5.75;;;;;;;4.97;95.77;101045.19;5045739;28;20402;-45
2024/01/23 01:06:01;;;;;;;33.55;6.18;;;;;;;4.97;95.91;101053.41;5045967;28;20048;-44
2024/01/23 01:08:30;;;;;;;27.00;4.60;;;;;;;4.95;95.96;101044.66;5045972;28;20403;-45
2024/01/23 01:10:57;;;;;;;23.77;4.45;;;;;;;4.92;95.63;101039.78;5042208;28;20466;-44
2024/01/23 01:13:25;;;;;;;23.17;4.47;;;;;;;4.90;95.74;101042.00;5043001;28;20283;-47
2024/01/23 01:15:52;;;;;;;21.85;5.38;;;;;;;4.87;95.53;101039.88;5026042;28;20577;-44
2024/01/23 01:18:19;;;;;;;17.08;4.63;;;;;;;4.84;95.71;101027.53;5044684;28;20045;-47
2024/01/23 01:20:48;;;;;;;22.17;5.32;;;;;;;4.84;95.98;101026.75;5045745;28;20052;-47
2024/01/23 01:23:16;;;;;;;25.65;4.85;;;;;;;4.83;95.90;101025.13;5032527;28;20056;-47
2024/01/23 01:25:45;;;;;;;21.95;6.00;;;;;;;4.82;95.96;101028.97;5036672;28;20766;-45
2024/01/23 01:28:14;;;;;;;20.08;4.72;;;;;;;4.83;96.15;101034.16;5044286;28;20049;-50
2024/01/23 01:30:42;;;;;;;19.50;4.70;;;;;;;4.85;96.39;101044.81;5044461;28;20041;-45
2024/01/23 01:33:09;;;;;;;22.70;4.93;;;;;;;4.87;95.97;101039.88;5045449;28;20044;-48
2024/01/23 01:35:36;;;;;;;23.90;5.07;;;;;;;4.88;95.97;101033.25;5045783;28;20406;-46
2024/01/23 01:38:04;;;;;;;25.67;6.03;;;;;;;4.91;95.91;101022.50;5044936;28;20056;-45
2024/01/23 01:40:31;;;;;;;30.10;4.65;;;;;;;4.91;96.20;101006.06;5044571;28;20044;-46
2024/01/23 01:42:59;;;;;;;22.00;5.35;;;;;;;4.93;95.97;101011.22;5044514;28;20057;-47
2024/01/23 01:45:26;;;;;;;23.02;4.90;;;;;;;4.93;96.13;101006.56;5041946;28;20052;-45
2024/01/23 01:47:54;;;;;;;18.17;4.65;;;;;;;4.94;96.06;101021.09;5040115;28;20124;-48
2024/01/23 01:50:22;;;;;;;17.05;5.72;;;;;;;4.97;96.23;101009.53;5043986;28;20053;-44
2024/01/23 01:52:49;;;;;;;26.65;5.35;;;;;;;4.99;95.96;101006.47;5044116;28;20037;-49
2024/01/23 01:55:17;;;;;;;29.67;4.72;;;;;;;5.00;96.20;100991.63;5044732;28;20048;-44
2024/01/23 01:57:45;;;;;;;20.52;4.85;;;;;;;5.01;96.29;100983.09;5045965;28;20056;-44
2024/01/23 02:00:13;;;;;;;22.88;5.13;;;;;;;5.02;96.02;100979.25;5048448;28;20071;-50
2024/01/23 02:02:42;;;;;;;18.65;5.00;;;;;;;5.04;96.35;100976.19;5046661;28;20071;-51
2024/01/23 02:05:10;;;;;;;29.83;6.15;;;;;;;5.06;96.41;100971.19;5047143;28;20410;-45
2024/01/23 02:07:38;;;;;;;25.73;4.55;;;;;;;5.06;96.29;100966.53;5049481;28;20407;-46
2024/01/23 02:10:06;;;;;;;15.98;4.55;;;;;;;5.09;96.34;100957.69;5048305;28;20048;-45
2024/01/23 02:12:34;;;;;;;22.48;4.60;;;;;;;5.11;96.33;100965.66;5047057;28;20138;-45
2024/01/23 02:15:01;;;;;;;22.30;4.47;;;;;;;5.12;96.09;100961.75;5046395;28;20049;-45
2024/01/23 02:17:28;;;;;;;26.58;7.53;;;;;;;5.13;96.39;100956.00;5048520;28;20583;-45
2024/01/23 02:19:56;;;;;;;21.73;4.15;;;;;;;5.15;96.28;100948.25;5029752;28;20668;-44
2024/01/23 02:22:23;;;;;;;24.17;5.80;;;;;;;5.18;96.31;100952.31;5048120;28;20037;-47
2024/01/23 02:24:51;;;;;;;33.67;4.88;;;;;;;5.20;96.34;100950.91;5038235;28;20041;-44
2024/01/23 02:27:18;;;;;;;18.67;4.40;;;;;;;5.19;96.14;100954.75;5048060;28;20076;-47
2024/01/23 02:29:46;;;;;;;19.60;3.72;;;;;;;5.22;96.20;100948.66;5048344;28;20053;-47
2024/01/23 02:32:14;;;;;;;22.20;4.25;;;;;;;5.22;96.36;100945.09;5048232;28;20546;-46
2024/01/23 02:34:41;;;;;;;23.95;5.00;;;;;;;5.26;96.20;100940.63;5046303;28;20780;-45
2024/01/23 02:37:08;;;;;;;22.38;4.22;;;;;;;5.27;96.08;100939.53;5048047;28;20041;-45
2024/01/23 02:39:36;;;;;;;12.57;3.40;;;;;;;5.30;96.09;100926.00;5047258;28;20057;-46
2024/01/23 02:42:03;;;;;;;11.48;4.05;;;;;;;5.30;96.11;100931.47;5048562;28;20056;-44
2024/01/23 02:44:31;;;;;;;18.40;4.65;;;;;;;5.32;95.90;100937.47;5043684;28;20410;-45
2024/01/23 02:46:58;;;;;;;13.32;3.28;;;;;;;5.33;95.92;100928.13;5048197;28;20060;-47
2024/01/23 02:49:25;;;;;;;27.80;4.18;;;;;;;5.34;95.97;100929.75;5048281;28;20048;-46
2024/01/23 02:51:53;;;;;;;19.13;4.22;;;;;;;5.34;95.76;100921.53;5047426;28;20422;-45
2024/01/23 02:54:20;;;;;;;19.65;2.90;;;;;;;5.34;96.06;100917.97;5039554;28;20041;-46
2024/01/23 02:56:48;;;;;;;19.40;4.85;;;;;;;5.35;95.70;100923.13;5048002;28;20049;-47
2024/01/23 02:59:16;;;;;;;15.30;6.28;;;;;;;5.37;95.94;100918.19;5036570;28;20430;-47
2024/01/23 03:01:43;;;;;;;13.07;2.67;;;;;;;5.37;95.57;100906.38;5120048;22;20060;-47
2024/01/23 03:04:10;;;;;;;19.73;5.25;;;;;;;5.38;95.55;100905.25;5048265;28;20053;-47
2024/01/23 03:06:38;;;;;;;20.85;5.03;;;;;;;5.37;95.78;100893.47;5047448;28;20052;-44
2024/01/23 03:09:06;;;;;;;17.77;4.00;;;;;;;5.38;95.85;100892.31;5047464;28;20056;-45
2024/01/23 03:11:33;;;;;;;24.40;4.82;;;;;;;5.39;95.77;100888.47;5047137;28;20567;-46
2024/01/23 03:14:01;;;;;;;27.10;4.72;;;;;;;5.39;95.59;100880.25;5047413;28;20044;-47
2024/01/23 03:16:28;;;;;;;45.75;9.25;;;;;;;5.40;95.69;100870.06;5036585;28;20045;-45
2024/01/23 03:18:56;;;;;;;23.77;3.47;;;;;;;5.41;95.71;100869.75;5048104;28;20048;-47
2024/01/23 03:21:23;;;;;;;22.45;4.25;;;;;;;5.45;95.39;100878.19;5047402;28;20055;-44
2024/01/23 03:23:51;;;;;;;26.67;4.55;;;;;;;5.47;95.58;100860.28;5047340;28;20045;-46
2024/01/23 03:26:19;;;;;;;23.45;3.97;;;;;;;5.50;95.20;100859.69;5047504;28;20053;-51
2024/01/23 03:28:50;;;;;;;16.35;3.80;;;;;;;5.52;95.58;100854.69;5039742;28;20041;-44
2024/01/23 03:31:17;;;;;;;16.70;3.17;;;;;;;5.55;95.34;100856.00;5047283;28;20060;-47
2024/01/23 03:33:46;;;;;;;17.83;5.53;;;;;;;5.58;95.16;100854.56;5030039;28;20056;-46
2024/01/23 03:36:14;;;;;;;22.42;5.38;;;;;;;5.60;95.12;100841.34;5046706;28;20052;-45
2024/01/23 03:38:41;;;;;;;22.30;5.22;;;;;;;5.61;95.28;100835.53;5047992;28;20415;-45
2024/01/23 03:41:09;;;;;;;18.75;4.90;;;;;;;5.63;95.28;100837.97;5047307;28;20060;-44
2024/01/23 03:43:37;;;;;;;19.15;3.47;;;;;;;5.66;94.95;100823.63;5047125;28;20048;-47
2024/01/23 03:46:04;;;;;;;15.38;2.83;;;;;;;5.69;95.22;100823.81;5046676;28;20045;-47
2024/01/23 03:48:32;;;;;;;11.10;2.38;;;;;;;5.73;95.14;100830.31;5046383;28;20132;-46
2024/01/23 03:50:59;;;;;;;20.92;5.25;;;;;;;5.77;95.16;100830.50;5046589;28;20083;-45
2024/01/23 03:53:27;;;;;;;14.20;3.45;;;;;;;5.82;94.98;100822.13;5047188;28;20060;-46
2024/01/23 03:55:54;;;;;;;9.35;2.75;;;;;;;5.84;94.90;100826.19;5046948;28;20061;-47
2024/01/23 03:58:21;;;;;;;26.80;3.85;;;;;;;5.87;95.07;100813.81;5046316;28;20049;-45
2024/01/23 04:00:48;;;;;;;15.35;2.80;;;;;;;5.91;94.79;100810.09;5046830;28;20048;-45
2024/01/23 04:03:16;;;;;;;16.88;3.47;;;;;;;5.96;94.59;100799.00;5047184;28;20072;-45
2024/01/23 04:05:43;;;;;;;25.20;4.55;;;;;;;6.01;94.78;100792.56;5046055;28;20065;-47
2024/01/23 04:08:11;;;;;;;10.75;2.80;;;;;;;6.05;94.71;100793.56;5047189;28;20041;-47
2024/01/23 04:10:38;;;;;;;13.13;2.97;;;;;;;6.09;94.58;100789.03;5041859;28;20048;-46
2024/01/23 04:13:05;;;;;;;22.33;3.50;;;;;;;6.11;94.78;100781.31;5043546;28;20475;-44
2024/01/23 04:15:33;;;;;;;24.40;3.58;;;;;;;6.11;94.75;100773.88;5041208;28;20057;-46
2024/01/23 04:18:00;;;;;;;16.92;3.30;;;;;;;6.12;95.19;100760.94;5046378;28;20515;-46
2024/01/23 04:20:28;;;;;;;22.55;3.33;;;;;;;6.12;95.00;100753.50;5046526;28;20508;-45
2024/01/23 04:22:56;;;;;;;13.43;4.60;;;;;;;6.13;95.08;100748.81;5046597;28;20037;-45
2024/01/23 04:25:24;;;;;;;18.75;2.55;;;;;;;6.11;95.23;100749.16;5045891;28;20052;-44
2024/01/23 04:27:52;;;;;;;22.95;4.68;;;;;;;6.11;95.38;100743.66;5045879;28;20059;-44
2024/01/23 04:30:20;;;;;;;20.98;3.10;;;;;;;6.10;95.56;100736.53;5046419;28;20040;-44
2024/01/23 04:32:47;;;;;;;12.40;2.78;;;;;;;6.10;95.73;100721.97;5045444;28;20041;-44
2024/01/23 04:35:15;;;;;;;15.05;3.78;;;;;;;6.09;95.83;100717.59;5046039;28;20048;-47
2024/01/23 04:37:42;;;;;;;17.35;4.18;;;;;;;6.09;96.11;100704.66;5046402;28;20076;-49
2024/01/23 04:40:11;;;;;;;20.17;2.50;;;;;;;6.09;96.17;100699.16;5046268;28;20040;-47
2024/01/23 04:42:39;;;;;;;11.57;2.28;;;;;;;6.09;96.46;100690.09;5043979;28;20048;-44
2024/01/23 04:45:08;;;;;;;10.40;2.25;;;;;;;6.11;96.80;100676.88;5045997;28;20551;-44
2024/01/23 04:47:36;;;;;;;17.58;3.25;;;;;;;6.12;96.72;100667.47;5046233;28;20410;-45
2024/01/23 04:50:03;;;;;;;15.60;2.38;;;;;;;6.13;96.99;100666.38;5045395;28;20052;-45
2024/01/23 04:52:31;;;;;;;14.18;3.58;;;;;;;6.14;97.07;100646.00;5046189;28;20052;-44
2024/01/23 04:54:58;;;;;;;15.90;4.03;;;;;;;6.16;97.46;100640.19;5045777;28;20060;-50
2024/01/23 04:57:31;;;;;;;13.32;3.25;;;;;;;6.17;97.49;100626.09;5045441;28;20116;-45
2024/01/23 04:59:59;;;;;;;18.55;3.63;;;;;;;6.17;97.72;100623.34;5027332;28;20057;-44
2024/01/23 05:02:26;;;;;;;20.02;4.25;;;;;;;6.19;97.99;100612.06;5027577;28;20048;-48
2024/01/23 05:04:54;;;;;;;11.40;2.65;;;;;;;6.18;97.96;100591.19;5045502;28;20624;-49
2024/01/23 05:07:21;;;;;;;16.00;4.07;;;;;;;6.17;98.55;100584.88;5044955;28;20065;-44
2024/01/23 05:09:49;;;;;;;15.27;3.63;;;;;;;6.17;98.24;100576.63;5045650;28;20506;-44
2024/01/23 05:12:16;;;;;;;16.50;3.10;;;;;;;6.16;98.77;100574.22;5046110;28;20056;-45
2024/01/23 05:14:44;;;;;;;13.40;4.07;;;;;;;6.13;98.66;100560.00;5044517;28;20056;-46
2024/01/23 05:17:11;;;;;;;13.10;3.33;;;;;;;6.11;98.99;100562.25;5027798;28;20052;-46
2024/01/23 05:19:38;;;;;;;16.67;3.85;;;;;;;6.11;99.21;100550.44;5045244;28;20045;-46
2024/01/23 05:22:06;;;;;;;19.63;5.43;;;;;;;6.06;99.36;100540.38;5045442;28;20056;-45
2024/01/23 05:24:34;;;;;;;18.60;4.32;;;;;;;6.04;99.69;100536.34;5045864;28;20056;-48
2024/01/23 05:27:02;;;;;;;22.60;4.10;;;;;;;6.02;99.96;100519.38;5045484;28;20080;-46
2024/01/23 05:29:29;;;;;;;20.10;5.35;;;;;;;6.00;100.00;100516.16;5045113;28;20165;-49
2024/01/23 05:31:56;;;;;;;21.98;5.18;;;;;;;5.99;100.00;100514.50;5025035;28;20086;-44
2024/01/23 05:34:24;;;;;;;21.13;4.13;;;;;;;5.98;100.00;100510.16;5046502;28;20049;-46
2024/01/23 05:36:52;;;;;;;21.30;3.90;;;;;;;5.98;100.00;100499.19;5050246;28;20052;-46
2024/01/23 05:39:20;;;;;;;23.92;4.00;;;;;;;5.97;100.00;100489.31;5048848;28;20075;-47
2024/01/23 05:41:47;;;;;;;26.42;4.03;;;;;;;5.96;100.00;100490.41;5050530;28;20049;-46
2024/01/23 05:44:14;;;;;;;26.98;6.13;;;;;;;5.96;100.00;100476.69;5049177;28;20064;-45
2024/01/23 05:46:42;;;;;;;29.08;4.78;;;;;;;5.95;100.00;100453.09;5049442;28;20518;-44
2024/01/23 05:49:09;;;;;;;25.70;4.57;;;;;;;5.92;100.00;100445.50;5048848;28;20063;-46
2024/01/23 05:51:36;;;;;;;31.38;4.80;;;;;;;5.91;100.00;100432.88;5048668;28;20481;-47
2024/01/23 05:54:04;;;;;;;27.42;5.78;;;;;;;5.89;100.00;100421.41;5031466;28;20045;-45
2024/01/23 05:56:31;;;;;;;28.60;6.00;;;;;;;5.89;100.00;100410.41;5049850;28;20053;-46
2024/01/23 05:59:00;;;;;;;22.33;4.25;;;;;;;5.89;100.00;100396.69;5048915;28;20060;-45
2024/01/23 06:01:28;;;;;;;28.67;5.10;;;;;;;5.89;100.00;100388.44;5047995;28;20061;-50
2024/01/23 06:03:56;;;;;;;18.45;4.70;;;;;;;5.89;100.00;100371.97;5049515;28;20127;-45
2024/01/23 06:06:26;;;;;;;28.67;4.65;;;;;;;5.88;100.00;100360.16;5049029;28;20047;-44
2024/01/23 06:08:53;;;;;;;18.67;4.60;;;;;;;5.90;100.00;100357.91;5049002;28;20384;-47
2024/01/23 06:11:20;;;;;;;29.10;4.95;;;;;;;5.90;100.00;100352.44;5048336;28;20045;-46
2024/01/23 06:13:50;;;;;;;31.48;5.60;;;;;;;5.91;100.00;100329.28;5039104;28;20510;-44
2024/01/23 06:16:17;;;;;;;19.65;3.55;;;;;;;5.91;100.00;100326.53;5048939;28;20041;-44
2024/01/23 06:18:45;;;;;;;23.42;5.18;;;;;;;5.93;100.00;100320.75;5048825;28;20647;-44
2024/01/23 06:21:12;;;;;;;19.65;3.13;;;;;;;5.94;100.00;100297.63;5048684;28;20045;-46
2024/01/23 06:23:40;;;;;;;18.17;3.20;;;;;;;5.98;100.00;100306.84;5048742;28;20061;-49
2024/01/23 06:26:07;;;;;;;13.82;3.28;;;;;;;5.99;100.00;100284.53;5047663;28;20037;-47
2024/01/23 06:28:34;;;;;;;18.25;2.85;;;;;;;6.02;100.00;100272.06;5048215;28;20052;-44
2024/01/23 06:31:01;;;;;;;14.10;2.30;;;;;;;6.04;100.00;100267.03;5047796;28;20502;-46
2024/01/23 06:33:31;;;;;;;12.35;2.63;;;;;;;6.06;100.00;100246.34;5047581;28;20060;-51
2024/01/23 06:35:58;;;;;;;19.75;2.53;;;;;;;6.11;100.00;100245.38;5048508;28;20148;-47
2024/01/23 06:38:26;;;;;;;9.65;1.70;;;;;;;6.12;100.00;100231.31;5048591;28;20709;-45
2024/01/23 06:40:54;;;;;;;13.50;3.50;;;;;;;6.17;100.00;100230.31;5048641;28;20059;-45
2024/01/23 06:43:21;;;;;;;3.95;1.90;;;;;;;6.19;100.00;100219.81;5048232;28;20044;-47
2024/01/23 06:45:48;;;;;;;3.80;1.35;;;;;;;6.24;100.00;100213.31;5046819;28;20686;-47
2024/01/23 06:48:16;;;;;;;10.25;2.00;;;;;;;6.29;100.00;100199.41;5047359;28;20051;-48
2024/01/23 06:50:44;;;;;;;10.40;3.10;;;;;;;6.34;100.00;100189.03;5029946;28;20040;-50
2024/01/23 06:53:11;;;;;;;16.67;5.90;;;;;;;6.39;100.00;100166.84;5047756;28;20048;-44
2024/01/23 06:55:39;;;;;;;8.30;2.40;;;;;;;6.44;100.00;100166.66;5048230;28;20359;-45
2024/01/23 06:58:06;;;;;;;10.25;4.40;;;;;;;6.47;100.00;100151.44;5047975;28;20056;-47
2024/01/23 07:00:33;;;;;;;20.50;7.43;;;;;;;6.51;100.00;100139.44;5047295;28;20044;-44
2024/01/23 07:03:01;;;;;;;15.20;5.35;;;;;;;6.56;100.00;100131.00;5047827;28;20052;-48
2024/01/23 07:05:28;;;;;;;11.45;4.55;;;;;;;6.60;100.00;100118.19;5048288;28;20079;-44
2024/01/23 07:07:56;;;;;;;11.77;5.95;;;;;;;6.63;100.00;100109.28;5047555;28;20045;-44
2024/01/23 07:10:23;;;;;;;12.88;3.55;;;;;;;6.66;100.00;100094.88;5044814;28;20411;-44
2024/01/23 07:12:50;;;;;;;8.73;3.13;;;;;;;6.70;100.00;100083.97;5047596;28;20052;-44
2024/01/23 07:15:18;;;;;;;15.23;7.40;;;;;;;6.75;100.00;100076.31;5047269;28;20049;-44
2024/01/23 07:17:46;;;;;;;13.25;5.07;;;;;;;6.77;100.00;100065.00;5047492;28;20052;-46
2024/01/23 07:20:13;;;;;;;11.73;5.72;;;;;;;6.81;100.00;100054.09;5048343;28;20049;-46
2024/01/23 07:22:41;;;;;;;12.02;5.68;;;;;;;6.81;100.00;100059.63;5046509;28;20679;-46
2024/01/23 07:25:09;;;;;;;14.60;6.72;;;;;;;6.83;100.00;100049.09;5047715;28;20048;-44
2024/01/23 07:27:39;;;;;;;7.63;5.28;;;;;;;6.83;100.00;100043.59;5046305;28;20534;-44
2024/01/23 07:30:07;;;;;;;15.13;5.95;;;;;;;6.83;100.00;100019.63;5046996;28;20478;-47
2024/01/23 07:32:35;;;;;;;11.15;5.43;;;;;;;6.87;100.00;100011.50;5044673;28;20053;-44
2024/01/23 07:35:03;;;;;;;9.57;2.72;;;;;;;6.90;100.00;100011.63;5047545;28;20055;-45
2024/01/23 07:37:30;;;;;;;2.53;0.70;;;;;;;6.95;100.00;99994.09;5046120;28;20048;-46
2024/01/23 07:39:58;;;;;;;1.40;0.52;;;;;;;7.03;100.00;99983.00;5045918;28;20510;-47
2024/01/23 07:42:25;;;;;;;0.65;0.28;;;;;;;7.14;100.00;99975.94;5024954;28;20036;-48
2024/01/23 07:44:53;;;;;;;0.10;0.10;;;;;;;7.26;100.00;99967.69;5045222;28;20072;-45
2024/01/23 07:47:20;;;;;;;0.80;0.40;;;;;;;7.35;100.00;99960.13;5047467;28;20053;-49
2024/01/23 07:49:48;;;;;;;0.10;0.10;;;;;;;7.50;100.00;99955.88;5029851;28;20057;-46
2024/01/23 07:52:19;;;;;;;1.65;0.20;;;;;;;7.59;100.00;99945.56;5047605;28;20060;-46
2024/01/23 07:54:47;;;;;;;0.22;0.13;;;;;;;7.66;100.00;99934.78;5047495;28;20510;-45
2024/01/23 07:57:15;;;;;;;0.32;0.20;;;;;;;7.72;100.00;99922.38;5046758;28;20045;-47
2024/01/23 07:59:42;;;;;;;0.45;0.20;;;;;;;7.75;100.00;99912.63;5046391;28;20057;-46
2024/01/23 08:02:10;;;;;;;2.20;1.38;;;;;;;7.76;100.00;99906.75;5046234;28;20063;-45
2024/01/23 08:04:37;;;;;;;1.20;0.10;;;;;;;7.84;100.00;99892.03;5027650;28;20053;-48
2024/01/23 08:07:06;;;;;;;0.08;0.00;;;;;;;7.97;100.00;99863.28;5027303;28;20060;-44
2024/01/23 08:09:34;;;;;;;0.10;0.00;;;;;;;8.10;100.00;99863.28;5038428;28;20103;-45
2024/01/23 08:12:01;;;;;;;0.13;0.03;;;;;;;8.25;100.00;99840.47;5034327;28;20124;-44
2024/01/23 08:14:29;;;;;;;0.00;0.00;;;;;;;8.34;100.00;99844.69;5027770;28;20395;-49
2024/01/23 08:16:56;;;;;;;0.10;0.10;;;;;;;8.44;100.00;99835.94;5027608;28;20041;-49
2024/01/23 08:19:27;;;;;;;0.10;0.10;;;;;;;8.48;100.00;99838.75;5044164;28;20044;-45
2024/01/23 08:21:55;;;;;;;0.25;0.10;;;;;;;8.54;100.00;99831.84;5046250;28;20052;-47
2024/01/23 08:24:22;;;;;;;0.65;0.10;;;;;;;8.61;100.00;99820.97;5043317;28;20052;-49
2024/01/23 08:26:52;;;;;;;0.38;0.10;;;;;;;8.70;100.00;99843.69;5015966;28;20045;-45
2024/01/23 08:29:19;;;;;;;1.02;0.10;;;;;;;8.72;100.00;99832.28;5047267;28;20044;-47
2024/01/23 08:31:47;;;;;;;0.20;0.00;;;;;;;8.73;100.00;99826.44;5047001;28;20052;-48
2024/01/23 08:34:14;;;;;;;1.23;0.10;;;;;;;8.83;100.00;99823.16;5035838;28;20045;-47
2024/01/23 08:36:42;;;;;;;0.63;0.40;;;;;;;8.90;100.00;99817.78;5047126;28;20059;-45
2024/01/23 08:39:09;;;;;;;0.10;0.00;;;;;;;8.98;100.00;99803.00;5047167;28;20037;-46
2024/01/23 08:41:36;;;;;;;1.20;0.10;;;;;;;9.17;100.00;99788.47;5038875;28;20044;-45
2024/01/23 08:44:04;;;;;;;0.00;0.00;;;;;;;9.29;100.00;99766.28;5040751;28;20047;-47
2024/01/23 08:46:31;;;;;;;0.08;0.08;;;;;;;9.42;100.00;99758.66;5034038;28;20045;-44
2024/01/23 08:48:59;;;;;;;0.90;0.00;;;;;;;9.52;100.00;99763.63;5047728;28;20514;-45
2024/01/23 08:51:28;;;;;;;0.05;0.00;;;;;;;9.56;100.00;99762.50;5042072;28;20050;-46
2024/01/23 08:53:55;;;;;;;0.22;0.10;;;;;;;9.63;100.00;99772.94;5041950;28;20049;-49
2024/01/23 08:56:23;;;;;;;0.10;0.10;;;;;;;9.67;100.00;99737.88;5045910;28;20451;-45
2024/01/23 08:58:51;;;;;;;0.10;0.10;;;;;;;9.74;100.00;99725.00;5048169;28;20049;-47
2024/01/23 09:01:18;;;;;;;1.25;0.05;;;;;;;9.77;100.00;99717.94;5046666;28;20071;-47
2024/01/23 09:03:46;;;;;;;0.20;0.20;;;;;;;9.82;100.00;99720.44;5047722;28;20055;-47
2024/01/23 09:06:13;;;;;;;0.17;0.10;;;;;;;9.84;100.00;99720.06;5046019;28;20041;-45
2024/01/23 09:08:45;;;;;;;0.73;0.30;;;;;;;9.86;100.00;99709.41;5025890;28;20052;-46
2024/01/23 09:11:12;;;;;;;0.30;0.10;;;;;;;9.92;100.00;99711.53;5040366;28;20064;-49
2024/01/23 09:13:39;;;;;;;0.10;0.10;;;;;;;9.98;100.00;99723.88;5027961;28;20533;-45
2024/01/23 09:16:07;;;;;;;0.38;0.10;;;;;;;10.04;100.00;99722.41;5046586;28;20056;-45
2024/01/23 09:18:35;;;;;;;0.10;0.10;;;;;;;10.10;100.00;99714.63;5047568;28;20593;-46
2024/01/23 09:21:04;;;;;;;0.52;0.20;;;;;;;10.13;100.00;99720.28;5046450;28;20695;-45
2024/01/23 09:23:32;;;;;;;0.28;0.05;;;;;;;10.16;100.00;99700.19;5012219;28;20052;-46
2024/01/23 09:25:59;;;;;;;0.55;0.05;;;;;;;10.21;100.00;99705.41;5046851;28;20048;-49
2024/01/23 09:28:27;;;;;;;0.98;0.10;;;;;;;10.23;100.00;99702.25;5047311;28;20059;-47
2024/01/23 09:30:54;;;;;;;2.85;0.20;;;;;;;10.28;100.00;99711.06;5042866;28;20422;-47
2024/01/23 09:33:21;;;;;;;1.35;0.20;;;;;;;10.32;100.00;99700.88;5029427;28;20049;-45
2024/01/23 09:35:50;;;;;;;0.98;0.10;;;;;;;10.35;100.00;99677.19;5039514;28;20061;-47
2024/01/23 09:38:18;;;;;;;2.05;0.30;;;;;;;10.38;100.00;99671.69;5046018;28;20060;-48
2024/01/23 09:40:51;;;;;;;1.60;0.35;;;;;;;10.42;100.00;99674.53;5046193;28;20056;-47
2024/01/23 09:43:22;;;;;;;0.55;0.32;;;;;;;10.46;100.00;99682.91;5045006;28;20037;-47
2024/01/23 09:45:51;;;;;;;1.80;0.20;;;;;;;10.51;100.00;99666.00;5022441;28;20059;-44
2024/01/23 09:48:20;;;;;;;1.10;0.40;;;;;;;10.54;100.00;99662.47;5045531;28;21013;-45
2024/01/23 09:50:55;;;;;;;0.15;0.05;;;;;;;10.55;100.00;99648.25;5045931;28;20061;-45
2024/01/23 09:53:26;;;;;;;2.05;0.63;;;;;;;10.62;100.00;99653.09;5045375;28;20052;-50
2024/01/23 09:55:53;;;;;;;1.70;0.50;;;;;;;10.66;100.00;99643.69;5044482;28;20056;-46
2024/01/23 09:58:21;;;;;;;0.25;0.10;;;;;;;10.67;100.00;99638.97;5046477;28;20045;-45
2024/01/23 10:00:49;;;;;;;0.30;0.20;;;;;;;10.71;100.00;99623.19;5046743;28;20406;-45
2024/01/23 10:03:16;;;;;;;0.77;0.60;;;;;;;10.77;100.00;99644.66;5031843;28;20049;-46
2024/01/23 10:05:44;;;;;;;2.30;0.45;;;;;;;10.80;100.00;99620.97;5039760;28;20068;-46
2024/01/23 10:08:11;;;;;;;1.52;0.55;;;;;;;10.82;100.00;99613.88;5046433;28;20072;-49
2024/01/23 10:10:38;;;;;;;1.65;0.25;;;;;;;10.81;100.00;99623.34;5045168;28;20048;-50
2024/01/23 10:13:06;;;;;;;1.75;0.20;;;;;;;10.87;100.00;99615.53;5046186;28;20049;-46
2024/01/23 10:15:33;;;;;;;1.27;0.20;;;;;;;10.90;100.00;99620.31;5035699;28;20044;-48
2024/01/23 10:18:04;;;;;;;0.98;0.30;;;;;;;10.96;100.00;99580.06;5045141;28;20041;-47
2024/01/23 10:20:37;;;;;;;;;;;;;;;10.98;100.00;99610.94;5045066;28;20045;-46
2024/01/23 10:23:04;;;;;;;0.80;0.45;;;;;;;10.97;100.00;99590.75;5030536;28;19925;-50
2024/01/23 10:25:32;;;;;;;2.50;0.20;;;;;;;11.00;100.00;99583.66;5050317;28;20386;-46
2024/01/23 10:28:00;;;;;;;2.13;0.20;;;;;;;11.04;100.00;99576.16;5049158;28;20045;-48
2024/01/23 10:30:27;;;;;;;1.77;0.40;;;;;;;11.06;100.00;99562.75;5047169;28;20041;-47
2024/01/23 10:32:54;;;;;;;0.95;0.20;;;;;;;11.12;100.00;99566.00;5049602;28;20068;-47
2024/01/23 10:35:22;;;;;;;0.68;0.13;;;;;;;11.16;100.00;99544.66;5049175;28;20045;-48
2024/01/23 10:37:52;;;;;;;1.90;0.50;;;;;;;11.19;100.00;99544.72;5048460;28;20081;-45
2024/01/23 10:40:23;;;;;;;1.67;0.20;;;;;;;11.26;100.00;99533.72;5049467;28;20055;-49
2024/01/23 10:42:51;;;;;;;0.82;0.10;;;;;;;11.29;100.00;99544.03;5047636;28;20052;-48
2024/01/23 10:45:19;;;;;;;0.50;0.10;;;;;;;11.33;100.00;99530.22;5050077;28;20049;-46
2024/01/23 10:47:47;;;;;;;1.25;0.17;;;;;;;11.37;100.00;99525.50;5049712;28;20061;-50
2024/01/23 10:50:15;;;;;;;0.90;0.20;;;;;;;11.39;100.00;99520.38;5046569;28;20041;-47
2024/01/23 10:52:47;;;;;;;0.30;0.25;;;;;;;11.41;100.00;99524.34;5048002;28;20048;-46
2024/01/23 10:55:16;;;;;;;1.20;0.38;;;;;;;11.48;100.00;99531.97;5047916;28;20525;-46
2024/01/23 10:57:48;;;;;;;0.17;0.10;;;;;;;11.52;100.00;99524.47;5049139;28;20048;-46
2024/01/23 11:00:19;;;;;;;0.90;0.25;;;;;;;11.57;100.00;99521.34;5047743;28;20033;-50
2024/01/23 11:02:53;;;;;;;0.35;0.30;;;;;;;11.62;100.00;99524.56;5027758;28;20061;-45
2024/01/23 11:05:28;;;;;;;2.97;0.30;;;;;;;11.67;100.00;99514.31;5027775;28;20041;-49
2024/01/23 11:08:21;;;;;;;0.63;0.10;;;;;;;11.72;100.00;99497.38;5029110;28;20042;-48
2024/01/23 11:11:39;;;;;;;1.00;0.93;;;;;;;11.76;100.00;99487.09;5032077;28;20053;-47
2024/01/23 11:14:29;;;;;;;0.17;0.17;;;;;;;11.81;100.00;99453.50;5022803;28;20064;-50
2024/01/23 11:17:06;;;;;;;0.43;0.20;;;;;;;11.86;100.00;99497.50;5027482;28;20460;-49
2024/01/23 11:19:46;;;;;;;0.52;0.10;;;;;;;11.93;100.00;99476.16;5027979;28;20045;-48
2024/01/23 11:22:21;;;;;;;2.83;0.15;;;;;;;11.98;100.00;99464.69;5027163;28;20053;-49
2024/01/23 11:24:49;;;;;;;1.60;0.20;;;;;;;12.04;100.00;99459.59;5029064;28;20403;-46
2024/01/23 11:27:24;;;;;;;0.47;0.10;;;;;;;12.09;100.00;99443.38;5027732;28;20050;-48
2024/01/23 11:29:55;;;;;;;2.42;0.20;;;;;;;12.15;100.00;99441.03;5025415;28;20041;-46